Terminal Aerodrome Forecast
Issued by NWS Pittsburgh, PA

Current Version | Previous Version | Text Only | Print | Product List | Glossary Off
Versions: 1 2 3 4 5 6 7 8 9 10 11 12 13 14 15 16 17 18 19 20 21 22 23 24 25 26 27 28 29 30 31 32

147
FTUS41 KPBZ 050856 AAA
TAFPIT
TAF AMD
KPIT 050856Z 0509/0612 VRB03KT P6SM VCSH OVC040
      TEMPO 0509/0510 5SM -SHRA
     FM051200 VRB04KT P6SM -SHRA OVC020
     FM052100 35008KT P6SM VCSH OVC040
     FM060800 34008KT P6SM VCSH BKN020=

USA.gov is the U.S. government's official web portal to all federal, state and local government web resources and services.